Time;durP1;ratioP1;P1;durP2;ratioP2;P2;SDS_P1;SDS_P2;PMS_P1;PMS_P2;Temp;Humidity;BMP_temperature;BMP_pressure;BME280_temperature;BME280_humidity;BME280_pressure;Samples;Min_cycle;Max_cycle;Signal;HPM_P1;HPM_P2
2022/08/30 00:02:24;;;;;;;3.72;1.63;;;;;;;15.40;100.00;98762.09;15300529;19;20038;-78
2022/08/30 00:07:33;;;;;;;5.13;1.80;;;;;;;15.26;100.00;98761.00;15303041;19;20011;-78
2022/08/30 00:12:39;;;;;;;3.90;1.90;;;;;;;15.19;100.00;98771.75;15286193;19;20373;-78
2022/08/30 00:17:44;;;;;;;5.10;1.90;;;;;;;15.15;100.00;98773.16;15289330;19;20034;-78
2022/08/30 00:22:52;;;;;;;3.88;1.90;;;;;;;15.14;100.00;98767.88;15293221;19;20034;-78
2022/08/30 00:27:57;;;;;;;3.55;2.00;;;;;;;15.09;100.00;98771.16;15291945;19;20448;-77
2022/08/30 00:33:02;;;;;;;3.65;1.80;;;;;;;15.05;100.00;98765.25;15281144;19;20022;-77
2022/08/30 00:38:10;;;;;;;6.68;1.80;;;;;;;15.01;100.00;98763.91;15284973;19;20014;-77
2022/08/30 00:43:21;;;;;;;3.63;1.85;;;;;;;14.98;100.00;98761.59;15275432;19;20019;-77
2022/08/30 00:48:29;;;;;;;5.00;1.77;;;;;;;14.94;100.00;98757.53;15277097;19;20027;-77
2022/08/30 00:53:40;;;;;;;3.70;1.65;;;;;;;14.93;100.00;98761.28;15278794;19;20026;-76
2022/08/30 00:58:48;;;;;;;4.82;1.55;;;;;;;14.89;100.00;98751.78;15291885;19;20014;-78
2022/08/30 01:03:55;;;;;;;4.80;1.75;;;;;;;14.85;100.00;98758.63;15286566;19;21895;-77
2022/08/30 01:09:04;;;;;;;5.70;1.73;;;;;;;14.82;100.00;98753.56;15295274;19;20106;-78
2022/08/30 01:14:11;;;;;;;4.53;1.65;;;;;;;14.75;100.00;98751.59;15300645;19;20018;-78
2022/08/30 01:19:25;;;;;;;5.05;1.70;;;;;;;14.70;100.00;98759.41;15302152;19;20015;-79
2022/08/30 01:24:37;;;;;;;2.85;1.60;;;;;;;14.64;100.00;98760.94;15339388;19;20515;-78
2022/08/30 01:29:43;;;;;;;5.50;2.00;;;;;;;14.57;100.00;98767.25;15336555;19;20014;-79
2022/08/30 01:34:49;;;;;;;5.22;1.67;;;;;;;14.51;100.00;98770.69;15306174;19;20019;-78
2022/08/30 01:39:57;;;;;;;4.00;1.95;;;;;;;14.45;100.00;98773.06;15308517;19;20007;-78
2022/08/30 01:45:02;;;;;;;4.28;1.73;;;;;;;14.41;100.00;98774.44;15301558;19;20010;-78
2022/08/30 01:50:08;;;;;;;4.57;1.60;;;;;;;14.36;100.00;98776.84;15299845;19;20011;-77
2022/08/30 01:55:15;;;;;;;2.25;1.50;;;;;;;14.31;100.00;98784.66;15281182;19;20022;-76
2022/08/30 02:00:20;;;;;;;3.88;1.65;;;;;;;14.23;100.00;98779.28;15294934;19;20015;-77
2022/08/30 02:05:26;;;;;;;7.00;1.70;;;;;;;14.12;100.00;98780.50;15298188;19;20059;-78
2022/08/30 02:10:34;;;;;;;3.90;1.70;;;;;;;13.93;100.00;98773.66;15304643;19;20652;-79
2022/08/30 02:15:39;;;;;;;3.22;1.70;;;;;;;13.63;100.00;98778.78;15310619;19;20034;-81
2022/08/30 02:20:45;;;;;;;2.65;1.67;;;;;;;13.43;100.00;98791.84;15302377;19;20011;-79
2022/08/30 02:26:00;;;;;;;3.40;1.70;;;;;;;13.35;100.00;98782.69;15339949;19;20007;-80
2022/08/30 02:31:04;;;;;;;6.55;2.08;;;;;;;13.21;100.00;98794.19;15332656;19;20089;-79
2022/08/30 02:36:10;;;;;;;3.75;2.00;;;;;;;13.17;100.00;98785.56;15288829;19;20078;-77
2022/08/30 02:41:17;;;;;;;4.30;1.98;;;;;;;13.05;100.00;98789.63;15284553;19;20018;-78
2022/08/30 02:46:22;;;;;;;5.47;2.00;;;;;;;13.00;100.00;98792.84;15286629;19;20033;-77
2022/08/30 02:51:27;;;;;;;4.45;1.90;;;;;;;12.94;100.00;98794.34;15288055;19;20034;-78
2022/08/30 02:56:35;;;;;;;5.53;2.10;;;;;;;12.85;100.00;98784.53;15284852;19;20030;-78
2022/08/30 03:01:40;;;;;;;4.32;1.80;;;;;;;12.78;100.00;98784.38;15282517;19;20033;-78
2022/08/30 03:06:45;;;;;;;3.75;1.92;;;;;;;12.72;100.00;98790.41;15291175;19;20010;-77
2022/08/30 03:11:53;;;;;;;4.15;1.67;;;;;;;12.66;100.00;98784.81;15292960;19;20025;-80
2022/08/30 03:16:58;;;;;;;5.25;1.80;;;;;;;12.59;100.00;98784.63;15295776;19;20031;-80
2022/08/30 03:22:04;;;;;;;2.67;1.80;;;;;;;12.51;100.00;98780.09;15294456;19;20007;-79
2022/08/30 03:27:13;;;;;;;3.40;1.77;;;;;;;12.50;100.00;98775.69;15294708;19;20010;-83
2022/08/30 03:32:18;;;;;;;3.45;1.90;;;;;;;12.47;100.00;98776.00;15296930;19;20017;-81
2022/08/30 03:37:23;;;;;;;3.50;1.70;;;;;;;12.44;100.00;98776.34;15294956;19;20013;-82
2022/08/30 03:42:33;;;;;;;5.03;2.05;;;;;;;12.42;100.00;98768.41;15293109;19;20014;-80
2022/08/30 03:47:38;;;;;;;3.58;2.00;;;;;;;12.40;100.00;98785.78;15293966;19;20035;-81
2022/08/30 03:52:46;;;;;;;4.35;1.90;;;;;;;12.37;100.00;98778.00;15297503;19;20018;-82
2022/08/30 03:57:53;;;;;;;3.70;1.90;;;;;;;12.28;100.00;98786.09;15291255;19;20038;-83
2022/08/30 04:02:59;;;;;;;4.70;2.33;;;;;;;12.23;100.00;98785.72;15292316;19;20028;-82
2022/08/30 04:08:04;;;;;;;3.72;1.85;;;;;;;12.19;100.00;98789.75;15303484;19;20018;-80
2022/08/30 04:13:12;;;;;;;6.30;2.15;;;;;;;12.17;100.00;98792.63;15303888;19;20047;-78
2022/08/30 04:18:17;;;;;;;4.20;2.17;;;;;;;12.12;100.00;98794.13;15308541;19;20014;-80
2022/08/30 04:23:21;;;;;;;5.35;2.00;;;;;;;12.08;100.00;98799.00;15306276;19;20022;-79
2022/08/30 04:28:29;;;;;;;5.88;2.00;;;;;;;12.08;100.00;98803.53;15312082;19;20789;-80
2022/08/30 04:33:35;;;;;;;3.92;1.98;;;;;;;12.05;100.00;98809.28;15299326;19;20006;-80
2022/08/30 04:38:42;;;;;;;5.55;2.28;;;;;;;12.02;100.00;98807.75;15307015;19;20019;-82
2022/08/30 04:43:50;;;;;;;3.78;2.08;;;;;;;12.00;100.00;98818.72;15304071;19;20505;-79
2022/08/30 04:48:56;;;;;;;5.35;2.00;;;;;;;11.99;100.00;98822.41;15294477;19;20011;-78
2022/08/30 04:54:01;;;;;;;5.97;2.03;;;;;;;11.98;100.00;98830.69;15292000;19;20018;-80
2022/08/30 04:59:08;;;;;;;3.55;2.20;;;;;;;11.95;100.00;98842.59;15294070;19;20184;-79
2022/08/30 05:04:13;;;;;;;3.35;1.95;;;;;;;11.93;100.00;98843.78;15284500;19;20046;-81
2022/08/30 05:09:20;;;;;;;5.80;2.17;;;;;;;11.93;100.00;98844.66;15303951;19;20017;-81
2022/08/30 05:14:27;;;;;;;3.90;2.10;;;;;;;11.92;100.00;98850.19;15301075;19;20037;-80
2022/08/30 05:19:33;;;;;;;3.60;2.00;;;;;;;11.94;100.00;98850.88;15312731;19;20014;-79
2022/08/30 05:24:38;;;;;;;3.63;2.10;;;;;;;11.97;100.00;98855.97;15305859;19;20031;-80
2022/08/30 05:29:45;;;;;;;2.72;1.95;;;;;;;12.01;100.00;98847.41;15308958;19;20498;-78
2022/08/30 05:34:50;;;;;;;5.60;2.40;;;;;;;12.04;100.00;98853.50;15297144;19;20014;-82
2022/08/30 05:39:55;;;;;;;4.75;2.45;;;;;;;12.11;100.00;98854.56;15318155;19;20018;-82
2022/08/30 05:45:03;;;;;;;4.68;2.22;;;;;;;12.15;100.00;98859.47;15310816;19;20022;-81
2022/08/30 05:50:10;;;;;;;4.22;2.30;;;;;;;12.24;100.00;98864.91;15311483;19;20014;-83
2022/08/30 05:55:21;;;;;;;5.82;2.17;;;;;;;12.29;100.00;98868.81;15312808;19;20646;-80
2022/08/30 06:00:29;;;;;;;5.32;2.15;;;;;;;12.34;100.00;98871.06;15347923;19;20007;-81
2022/08/30 06:05:34;;;;;;;5.32;2.47;;;;;;;12.42;100.00;98875.63;15321702;19;20011;-82
2022/08/30 06:10:39;;;;;;;3.92;2.33;;;;;;;12.52;100.00;98876.38;15289012;19;20017;-80
2022/08/30 06:15:46;;;;;;;7.25;2.80;;;;;;;12.62;100.00;98877.09;15296799;19;20045;-80
2022/08/30 06:20:51;;;;;;;6.95;2.80;;;;;;;12.73;100.00;98878.63;15297181;19;20034;-80
2022/08/30 06:25:55;;;;;;;7.35;2.70;;;;;;;12.84;100.00;98885.59;15299183;19;20015;-81
2022/08/30 06:31:02;;;;;;;6.60;2.50;;;;;;;12.94;100.00;98889.00;15299134;19;20002;-82
2022/08/30 06:36:10;;;;;;;8.70;2.72;;;;;;;13.07;100.00;98884.97;15299948;19;20025;-81
2022/08/30 06:41:24;;;;;;;10.98;2.60;;;;;;;13.18;100.00;98881.94;15296267;19;20363;-80
2022/08/30 06:46:34;;;;;;;8.95;2.67;;;;;;;13.33;100.00;98867.78;15294499;19;20105;-82
2022/08/30 06:51:41;;;;;;;8.05;2.50;;;;;;;13.48;100.00;98867.97;15303055;19;20010;-81
2022/08/30 06:56:52;;;;;;;6.70;2.40;;;;;;;13.67;100.00;98877.63;15343617;19;20022;-79
2022/08/30 07:02:05;;;;;;;9.20;2.60;;;;;;;13.81;100.00;98876.94;15340762;19;20003;-81
2022/08/30 07:07:13;;;;;;;8.48;2.67;;;;;;;13.99;100.00;98879.41;15296083;19;20014;-80
2022/08/30 07:12:17;;;;;;;6.05;2.58;;;;;;;14.17;100.00;98881.09;15288733;19;20042;-81
2022/08/30 07:22:42;;;;;;;5.40;2.47;;;;;;;14.43;100.00;98877.28;15296311;19;20022;-81
2022/08/30 07:27:49;;;;;;;3.78;2.35;;;;;;;14.59;100.00;98879.91;15297765;19;20015;-80
2022/08/30 07:32:56;;;;;;;7.90;2.60;;;;;;;14.75;100.00;98887.19;15294768;19;20284;-82
2022/08/30 07:38:01;;;;;;;3.63;2.40;;;;;;;14.90;100.00;98886.41;15298178;19;20019;-80
2022/08/30 07:43:06;;;;;;;4.22;2.50;;;;;;;15.11;100.00;98880.38;15291484;19;20015;-82
2022/08/30 07:48:15;;;;;;;5.38;2.70;;;;;;;15.25;100.00;98879.59;15293971;19;20013;-81
2022/08/30 07:53:19;;;;;;;4.57;2.65;;;;;;;15.51;100.00;98877.53;15296497;19;20325;-83
2022/08/30 07:58:28;;;;;;;5.55;2.60;;;;;;;15.71;100.00;98875.16;15295743;19;20021;-81
2022/08/30 08:03:37;;;;;;;4.35;2.90;;;;;;;16.02;100.00;98885.94;15289182;19;20017;-81
2022/08/30 08:08:46;;;;;;;7.60;2.40;;;;;;;16.30;100.00;98882.56;15290584;19;20314;-83
2022/08/30 08:13:53;;;;;;;5.22;2.10;;;;;;;16.61;100.00;98872.53;15286630;19;20039;-82
2022/08/30 08:19:01;;;;;;;4.07;1.88;;;;;;;16.84;100.00;98874.28;15290363;19;20022;-82
2022/08/30 08:24:07;;;;;;;6.93;2.40;;;;;;;17.16;100.00;98877.63;15288794;19;20094;-80
2022/08/30 08:29:12;;;;;;;2.70;1.83;;;;;;;17.41;100.00;98868.03;15308714;19;20015;-81
2022/08/30 08:34:22;;;;;;;3.50;2.00;;;;;;;17.67;100.00;98868.47;15298536;19;20019;-81
2022/08/30 08:39:27;;;;;;;3.53;1.80;;;;;;;17.89;100.00;98876.63;15296709;19;20014;-81
2022/08/30 08:44:51;;;;;;;4.38;1.75;;;;;;;18.15;100.00;98873.25;15287482;19;20475;-82
2022/08/30 08:50:06;;;;;;;3.78;1.77;;;;;;;18.38;100.00;98870.28;15295471;19;20025;-82
2022/08/30 08:55:14;;;;;;;3.40;1.60;;;;;;;18.58;100.00;98877.72;15287376;19;20018;-81
2022/08/30 09:00:19;;;;;;;3.33;1.80;;;;;;;18.75;100.00;98865.44;15294111;19;20014;-81
2022/08/30 09:05:30;;;;;;;7.88;1.40;;;;;;;18.89;100.00;98871.78;15289551;19;20007;-81
2022/08/30 09:10:36;;;;;;;3.57;1.70;;;;;;;19.06;100.00;98875.00;15292958;19;20014;-80
2022/08/30 09:15:55;;;;;;;3.47;1.60;;;;;;;19.24;100.00;98874.44;15291213;19;20022;-83
2022/08/30 09:21:10;;;;;;;2.88;1.80;;;;;;;19.39;100.00;98878.88;15294741;19;20094;-82
2022/08/30 09:26:15;;;;;;;6.20;2.20;;;;;;;19.48;100.00;98871.28;15293842;19;20011;-82
2022/08/30 09:31:23;;;;;;;7.00;1.70;;;;;;;19.61;100.00;98868.59;15300259;19;20018;-82
2022/08/30 09:36:34;;;;;;;3.05;1.65;;;;;;;19.75;100.00;98863.97;15344382;19;20023;-85
2022/08/30 09:41:42;;;;;;;5.22;1.90;;;;;;;19.78;100.00;98858.06;15309342;19;20345;-80
2022/08/30 09:46:51;;;;;;;3.58;1.80;;;;;;;19.96;100.00;98852.00;15330692;19;20348;-85
2022/08/30 09:52:12;;;;;;;6.55;2.03;;;;;;;20.10;100.00;98847.38;15326781;19;20405;-83
2022/08/30 09:57:30;;;;;;;3.63;1.57;;;;;;;20.27;100.00;98850.50;15294439;19;20482;-83
2022/08/30 10:03:01;;;;;;;2.80;1.60;;;;;;;20.44;100.00;98844.53;15296595;19;20014;-82
2022/08/30 10:08:25;;;;;;;5.93;2.00;;;;;;;20.54;100.00;98836.69;15296740;19;20308;-82
2022/08/30 10:13:58;;;;;;;2.20;1.50;;;;;;;20.71;100.00;98833.50;15295579;19;20010;-83
2022/08/30 10:19:33;;;;;;;2.92;1.50;;;;;;;20.77;100.00;98835.38;15301294;19;20015;-83
2022/08/30 10:25:06;;;;;;;5.32;2.05;;;;;;;20.83;100.00;98829.03;15290023;19;20014;-83
2022/08/30 10:30:16;;;;;;;5.28;1.85;;;;;;;20.93;100.00;98818.47;15298820;19;20010;-84
2022/08/30 10:35:41;;;;;;;6.82;2.05;;;;;;;21.02;100.00;98815.44;15300395;19;20011;-86
2022/08/30 10:41:15;;;;;;;6.15;1.67;;;;;;;21.17;100.00;98812.44;15303354;19;20023;-83
2022/08/30 10:46:27;;;;;;;4.20;1.70;;;;;;;21.34;100.00;98808.09;15297099;19;20471;-84
2022/08/30 10:51:40;;;;;;;6.47;1.50;;;;;;;21.41;100.00;98813.50;15299018;19;20042;-82
2022/08/30 10:56:51;;;;;;;3.33;1.40;;;;;;;21.48;100.00;98817.03;15299183;19;20014;-82
2022/08/30 11:02:07;;;;;;;;;;;;;;;21.48;100.00;98817.03;15301721;19;20022;-83
2022/08/30 11:07:24;;;;;;;4.70;1.70;;;;;;;21.71;100.00;98812.88;15302644;19;19915;-83
2022/08/30 11:12:36;;;;;;;2.00;1.10;;;;;;;21.90;100.00;98810.19;15305966;19;20041;-83
2022/08/30 11:17:43;;;;;;;;;;;;;;;21.91;100.00;98806.38;15303118;19;20034;-85
2022/08/30 11:23:22;;;;;;;3.53;1.25;;;;;;;22.02;100.00;98808.38;15306354;19;19933;-83
2022/08/30 11:28:58;;;;;;;3.50;1.10;;;;;;;22.00;100.00;98800.34;15306501;19;20054;-82
2022/08/30 11:34:06;;;;;;;4.53;1.20;;;;;;;22.07;100.00;98800.28;15306099;19;20013;-82
2022/08/30 11:39:13;;;;;;;4.63;1.10;;;;;;;22.18;100.00;98801.44;15312693;19;20376;-81
2022/08/30 11:44:32;;;;;;;2.75;1.10;;;;;;;22.24;100.00;98799.69;15311030;19;20021;-81
2022/08/30 11:49:57;;;;;;;2.72;1.00;;;;;;;22.29;100.00;98794.34;15314715;19;20664;-80
2022/08/30 11:55:19;;;;;;;2.42;1.00;;;;;;;22.47;100.00;98794.38;15306923;19;20018;-82
2022/08/30 12:00:31;;;;;;;2.15;1.00;;;;;;;22.74;100.00;98795.94;15308753;19;20386;-82
2022/08/30 12:05:57;;;;;;;2.40;0.95;;;;;;;22.93;98.95;98783.00;15308403;19;20042;-81
2022/08/30 12:11:07;;;;;;;1.25;0.90;;;;;;;23.12;100.00;98782.94;15314184;19;20037;-82
2022/08/30 12:16:15;;;;;;;6.25;1.00;;;;;;;23.13;100.00;98779.13;15303063;19;20019;-81
2022/08/30 12:21:32;;;;;;;3.03;1.08;;;;;;;22.89;89.61;98774.41;15305091;19;20026;-83
2022/08/30 12:26:51;;;;;;;1.65;0.90;;;;;;;22.81;96.62;98773.88;15313351;19;20010;-84
2022/08/30 12:32:02;;;;;;;2.92;1.00;;;;;;;22.82;93.54;98772.81;15358236;19;20006;-85
2022/08/30 12:37:23;;;;;;;2.78;1.00;;;;;;;22.83;88.42;98769.00;15321998;19;20021;-82
2022/08/30 12:42:31;;;;;;;3.08;0.90;;;;;;;23.22;84.31;98769.53;15300682;19;20578;-82
2022/08/30 12:47:43;;;;;;;1.58;0.80;;;;;;;23.64;88.49;98761.19;15299770;19;20376;-81
2022/08/30 12:52:59;;;;;;;4.03;1.00;;;;;;;23.67;92.82;98752.47;15294823;19;20415;-82
2022/08/30 12:58:08;;;;;;;2.08;0.95;;;;;;;23.81;90.43;98760.50;15297180;19;20036;-80
2022/08/30 13:03:31;;;;;;;1.63;1.00;;;;;;;23.64;88.47;98752.94;15285340;19;20346;-82
2022/08/30 13:08:50;;;;;;;4.03;0.85;;;;;;;23.37;89.88;98753.38;15272533;19;20558;-82
2022/08/30 13:13:59;;;;;;;2.90;1.03;;;;;;;23.38;90.47;98755.06;15278919;19;20042;-83
2022/08/30 13:19:27;;;;;;;4.88;1.00;;;;;;;23.55;84.36;98743.38;15282966;19;20279;-81
2022/08/30 13:24:35;;;;;;;2.90;1.10;;;;;;;23.90;90.90;98741.69;15284028;19;20045;-83
2022/08/30 13:29:41;;;;;;;2.03;1.00;;;;;;;24.63;89.45;98744.88;15295369;19;20667;-83
2022/08/30 13:34:46;;;;;;;2.03;1.10;;;;;;;24.40;80.94;98748.56;15292243;19;20010;-82
2022/08/30 13:39:53;;;;;;;2.17;0.93;;;;;;;24.10;83.60;98744.09;15298045;19;20030;-81
2022/08/30 13:44:58;;;;;;;2.40;1.00;;;;;;;23.75;83.19;98740.28;15293221;19;20109;-81
2022/08/30 13:50:03;;;;;;;2.80;0.98;;;;;;;23.62;87.93;98740.50;15303525;19;20022;-79
2022/08/30 13:55:11;;;;;;;4.43;1.00;;;;;;;23.66;84.88;98739.78;15302129;19;20019;-79
2022/08/30 14:00:21;;;;;;;5.13;1.10;;;;;;;24.17;80.79;98739.28;15332905;19;20007;-78
2022/08/30 14:05:29;;;;;;;3.92;0.95;;;;;;;24.71;74.50;98732.69;15345631;19;20047;-83
2022/08/30 14:10:59;;;;;;;1.90;0.90;;;;;;;25.19;75.37;98728.59;15287423;19;20408;-82
2022/08/30 14:16:09;;;;;;;4.57;0.93;;;;;;;25.56;70.11;98727.25;15290170;19;20018;-79
2022/08/30 14:21:34;;;;;;;3.40;1.13;;;;;;;25.67;70.45;98733.78;15293462;19;20018;-79
2022/08/30 14:26:46;;;;;;;5.03;1.00;;;;;;;25.27;71.72;98741.13;15295117;19;20014;-79
2022/08/30 14:31:51;;;;;;;4.63;0.90;;;;;;;25.01;72.34;98746.19;15294603;19;20042;-81
2022/08/30 14:36:55;;;;;;;1.08;0.80;;;;;;;25.02;76.45;98739.59;15295300;19;20030;-81
2022/08/30 14:42:03;;;;;;;2.40;0.95;;;;;;;25.23;74.22;98729.72;15289824;19;20020;-79
2022/08/30 14:47:12;;;;;;;1.98;0.98;;;;;;;25.59;74.29;98724.00;15289785;19;20006;-79
2022/08/30 14:52:17;;;;;;;3.28;0.88;;;;;;;25.27;73.10;98726.47;15296212;19;20011;-83
2022/08/30 14:57:24;;;;;;;3.05;1.00;;;;;;;25.42;75.72;98726.78;15295484;19;20581;-79
2022/08/30 15:02:29;;;;;;;3.28;1.00;;;;;;;25.74;75.43;98728.09;15293506;19;20399;-81
2022/08/30 15:07:34;;;;;;;3.33;1.00;;;;;;;25.98;68.98;98728.69;15293088;19;20034;-83
2022/08/30 15:12:43;;;;;;;5.07;0.98;;;;;;;26.17;66.39;98726.50;15296643;19;20365;-83
2022/08/30 15:17:49;;;;;;;3.85;0.80;;;;;;;26.26;66.76;98718.59;15317738;19;20015;-83
2022/08/30 15:22:54;;;;;;;2.83;1.08;;;;;;;26.17;65.73;98717.38;15316055;19;20381;-81
2022/08/30 15:28:01;;;;;;;3.13;0.80;;;;;;;26.11;63.54;98700.75;15301737;19;20041;-83
2022/08/30 15:33:06;;;;;;;3.35;1.10;;;;;;;26.21;63.24;98704.72;15293376;19;20015;-83
2022/08/30 15:38:11;;;;;;;5.25;0.95;;;;;;;26.33;64.16;98702.66;15298790;19;20017;-82
2022/08/30 15:43:19;;;;;;;1.55;0.90;;;;;;;26.32;64.49;98700.97;15300783;19;20014;-84
2022/08/30 15:48:24;;;;;;;2.60;0.90;;;;;;;26.41;67.39;98696.66;15296496;19;20014;-83
2022/08/30 15:53:29;;;;;;;2.90;0.90;;;;;;;25.95;65.92;98698.81;15296329;19;20046;-81
2022/08/30 15:58:37;;;;;;;3.17;1.02;;;;;;;26.14;68.25;98700.22;15293427;19;20022;-80
2022/08/30 16:03:44;;;;;;;2.85;0.80;;;;;;;26.10;71.15;98696.31;15296036;19;20014;-85
2022/08/30 16:08:49;;;;;;;4.72;1.00;;;;;;;26.05;70.56;98689.84;15307771;19;20048;-85
2022/08/30 16:13:58;;;;;;;4.57;0.93;;;;;;;25.97;72.51;98691.13;15295059;19;20372;-82
2022/08/30 16:19:03;;;;;;;4.25;0.98;;;;;;;25.61;72.80;98690.63;15288924;19;20007;-78
2022/08/30 16:24:10;;;;;;;3.10;1.02;;;;;;;25.58;75.25;98680.13;15287722;19;20011;-81
2022/08/30 16:29:20;;;;;;;2.42;0.90;;;;;;;25.58;75.94;98685.66;15292550;19;20014;-80
2022/08/30 16:34:25;;;;;;;1.55;0.93;;;;;;;25.48;74.02;98687.13;15283622;19;20042;-79
2022/08/30 16:39:30;;;;;;;1.42;0.75;;;;;;;25.36;75.28;98689.13;15287331;19;20041;-81
2022/08/30 16:44:38;;;;;;;2.85;0.90;;;;;;;25.18;75.81;98681.94;15286237;19;20472;-79
2022/08/30 16:49:44;;;;;;;3.70;0.98;;;;;;;25.05;79.73;98674.84;15288838;19;20006;-81
2022/08/30 16:54:48;;;;;;;1.08;0.80;;;;;;;24.77;84.46;98674.66;15294704;19;20019;-81
2022/08/30 16:59:58;;;;;;;3.88;1.00;;;;;;;24.46;89.73;98664.97;15303120;19;20383;-81
2022/08/30 17:05:03;;;;;;;2.00;0.93;;;;;;;24.27;94.35;98665.19;15307429;19;20042;-79
2022/08/30 17:10:08;;;;;;;2.45;0.80;;;;;;;24.05;97.33;98659.50;15321421;19;20010;-79
2022/08/30 17:15:19;;;;;;;2.67;0.90;;;;;;;23.82;100.00;98672.19;15317215;19;20018;-82
2022/08/30 17:20:25;;;;;;;3.40;1.00;;;;;;;23.62;100.00;98675.31;15317119;19;20089;-80
2022/08/30 17:25:30;;;;;;;1.58;1.00;;;;;;;23.39;100.00;98679.75;15314313;19;20026;-82
2022/08/30 17:30:41;;;;;;;2.88;0.90;;;;;;;23.15;100.00;98686.28;15317682;19;20014;-80
2022/08/30 17:35:49;;;;;;;;;;;;;;;22.80;100.00;98687.06;15311954;19;20027;-79
2022/08/30 17:40:54;;;;;;;2.88;1.13;;;;;;;22.54;100.00;98694.59;15311145;19;20328;-80
2022/08/30 17:46:17;;;;;;;1.80;1.00;;;;;;;22.29;100.00;98695.53;15302045;19;20010;-80
2022/08/30 17:51:22;;;;;;;2.90;0.90;;;;;;;21.91;100.00;98699.41;14799302;19;9999945;-79
2022/08/30 17:56:28;;;;;;;2.42;1.20;;;;;;;21.60;100.00;98706.66;15323222;19;20074;-82
2022/08/30 18:01:43;;;;;;;3.63;0.93;;;;;;;21.30;100.00;98707.34;15326535;19;20127;-82
2022/08/30 18:12:37;;;;;;;3.63;1.13;;;;;;;20.63;100.00;98720.47;15368064;19;20026;-81
2022/08/30 18:17:48;;;;;;;2.25;1.00;;;;;;;20.46;100.00;98725.56;15349818;19;20335;-83
2022/08/30 18:22:53;;;;;;;4.43;1.38;;;;;;;20.28;100.00;98740.00;15296447;19;20010;-82
2022/08/30 18:27:59;;;;;;;3.17;1.27;;;;;;;20.17;100.00;98743.38;15290557;19;20381;-82
2022/08/30 18:33:07;;;;;;;3.13;1.20;;;;;;;20.00;100.00;98748.47;15293907;19;20014;-83
2022/08/30 18:38:13;;;;;;;1.75;1.10;;;;;;;19.80;100.00;98754.00;15296242;19;20017;-82
2022/08/30 18:43:18;;;;;;;3.35;1.10;;;;;;;19.64;100.00;98755.28;15299306;19;20018;-83
2022/08/30 18:48:37;;;;;;;3.40;1.35;;;;;;;19.47;100.00;98749.38;15291190;19;20010;-84
2022/08/30 18:53:44;;;;;;;2.00;1.10;;;;;;;19.34;100.00;98755.69;15289751;19;20010;-82
2022/08/30 18:58:49;;;;;;;3.63;1.38;;;;;;;19.13;100.00;98751.28;15290990;19;20094;-79
2022/08/30 19:03:56;;;;;;;4.22;1.50;;;;;;;19.03;100.00;98741.59;15274650;19;20086;-78
2022/08/30 19:09:01;;;;;;;1.58;1.05;;;;;;;18.95;100.00;98741.81;15267130;19;20011;-76
2022/08/30 19:14:12;;;;;;;3.25;1.30;;;;;;;18.85;100.00;98734.00;15277119;19;20492;-77
2022/08/30 19:19:20;;;;;;;2.42;1.45;;;;;;;18.77;100.00;98739.66;15285597;19;20014;-75
2022/08/30 19:24:25;;;;;;;4.55;1.20;;;;;;;18.71;100.00;98743.19;15276909;19;20019;-76
2022/08/30 19:29:30;;;;;;;2.22;1.20;;;;;;;18.62;100.00;98748.03;15263328;19;20011;-77
2022/08/30 19:34:37;;;;;;;3.88;1.35;;;;;;;18.59;100.00;98753.88;15278031;19;20014;-76
2022/08/30 19:39:43;;;;;;;2.15;1.30;;;;;;;18.52;100.00;98763.94;15280359;19;20021;-73
2022/08/30 19:44:58;;;;;;;4.32;1.50;;;;;;;18.43;100.00;98761.38;15346591;19;20037;-77
2022/08/30 19:50:03;;;;;;;5.47;1.58;;;;;;;18.38;100.00;98763.03;15350572;19;20014;-73
2022/08/30 19:55:10;;;;;;;5.78;1.40;;;;;;;18.38;100.00;98763.03;15350861;19;20010;-75
2022/08/30 20:00:19;;;;;;;2.97;1.30;;;;;;;18.38;100.00;98761.16;15357499;19;20053;-75
2022/08/30 20:05:24;;;;;;;2.85;1.25;;;;;;;18.33;100.00;98752.72;15343325;19;20022;-73
2022/08/30 20:10:28;;;;;;;3.67;1.23;;;;;;;18.31;100.00;98757.56;15352055;19;20519;-77
2022/08/30 20:15:37;;;;;;;3.70;1.20;;;;;;;18.25;100.00;98752.91;15343392;19;20096;-73
2022/08/30 20:20:42;;;;;;;2.90;1.33;;;;;;;18.20;100.00;98760.84;15347453;19;20022;-76
2022/08/30 20:25:54;;;;;;;1.80;1.30;;;;;;;18.17;100.00;98762.09;15349297;19;20118;-75
2022/08/30 20:31:04;;;;;;;3.50;1.20;;;;;;;18.13;100.00;98764.41;15347455;19;20010;-76
2022/08/30 20:36:12;;;;;;;1.83;1.13;;;;;;;18.06;100.00;98755.34;15339550;19;20069;-75
2022/08/30 20:41:18;;;;;;;3.88;1.13;;;;;;;18.04;100.00;98754.72;15346016;19;20263;-73
2022/08/30 20:46:25;;;;;;;2.25;1.23;;;;;;;18.01;100.00;98753.22;15342083;19;20348;-76
2022/08/30 20:51:37;;;;;;;1.40;1.10;;;;;;;17.97;100.00;98753.81;15340626;19;20377;-76
2022/08/30 20:56:42;;;;;;;2.00;1.10;;;;;;;17.93;100.00;98761.53;15285184;19;20015;-75
2022/08/30 21:01:50;;;;;;;1.70;1.05;;;;;;;17.89;100.00;98759.41;15283591;19;20007;-74
2022/08/30 21:06:55;;;;;;;2.22;1.13;;;;;;;17.86;100.00;98757.94;15285601;19;20070;-75
2022/08/30 21:12:00;;;;;;;1.88;1.00;;;;;;;17.83;100.00;98761.88;15278431;19;20019;-76
2022/08/30 21:17:07;;;;;;;3.88;1.30;;;;;;;17.81;100.00;98758.53;15281322;19;20007;-76
2022/08/30 21:22:12;;;;;;;3.42;0.95;;;;;;;17.83;100.00;98756.44;15285618;19;20014;-76
2022/08/30 21:27:20;;;;;;;1.58;1.08;;;;;;;17.85;100.00;98762.53;15287148;19;20014;-77
2022/08/30 21:32:27;;;;;;;2.47;1.15;;;;;;;17.78;100.00;98764.38;15282376;19;20031;-77
2022/08/30 21:37:31;;;;;;;4.93;1.10;;;;;;;17.71;100.00;98763.47;15283896;19;20033;-73
2022/08/30 21:42:40;;;;;;;3.15;1.10;;;;;;;17.65;100.00;98772.47;15270298;19;20015;-77
2022/08/30 21:47:48;;;;;;;1.98;1.00;;;;;;;17.61;100.00;98768.44;15279472;19;20736;-77
2022/08/30 21:52:53;;;;;;;2.80;0.90;;;;;;;17.59;100.00;98778.69;15291661;19;20011;-78
2022/08/30 21:58:00;;;;;;;1.40;0.93;;;;;;;17.56;100.00;98775.34;15303861;19;20018;-76
2022/08/30 22:03:10;;;;;;;2.10;1.00;;;;;;;17.54;100.00;98777.41;15305541;19;20053;-77
2022/08/30 22:08:15;;;;;;;2.63;1.00;;;;;;;17.49;100.00;98779.06;15321494;19;20040;-76
2022/08/30 22:13:19;;;;;;;4.25;1.20;;;;;;;17.48;100.00;98778.19;15267417;19;20750;-76
2022/08/30 22:18:27;;;;;;;1.98;1.10;;;;;;;17.40;100.00;98784.63;15279354;19;20246;-76
2022/08/30 22:23:32;;;;;;;2.63;1.20;;;;;;;17.35;100.00;98781.66;15275423;19;20456;-76
2022/08/30 22:28:38;;;;;;;2.55;1.30;;;;;;;17.22;100.00;98787.84;15279162;19;20025;-76
2022/08/30 22:33:46;;;;;;;2.10;1.27;;;;;;;17.19;100.00;98785.50;15279397;19;20030;-76
2022/08/30 22:38:53;;;;;;;1.88;1.30;;;;;;;17.08;100.00;98786.03;15279263;19;20515;-76
2022/08/30 22:43:57;;;;;;;3.72;1.40;;;;;;;16.94;100.00;98788.63;15276277;19;20018;-76
2022/08/30 22:49:05;;;;;;;4.63;1.38;;;;;;;16.86;100.00;98788.72;15274977;19;20483;-76
2022/08/30 22:54:11;;;;;;;2.67;1.40;;;;;;;16.71;100.00;98802.34;15271203;19;20522;-76
2022/08/30 22:59:16;;;;;;;2.72;1.45;;;;;;;16.60;100.00;98806.41;15279953;19;20131;-76
2022/08/30 23:04:24;;;;;;;2.72;1.50;;;;;;;16.53;100.00;98810.09;15278764;19;20010;-76
2022/08/30 23:09:30;;;;;;;4.20;1.83;;;;;;;16.49;100.00;98817.78;15281088;19;20410;-73
2022/08/30 23:14:35;;;;;;;4.00;1.65;;;;;;;16.41;100.00;98821.44;15281957;19;20006;-77
2022/08/30 23:19:43;;;;;;;3.65;1.80;;;;;;;16.33;100.00;98818.84;15276072;19;20517;-75
